Flight Track Log - Related Links

Times and Time Zones

All times are in EDT time to prevent confusion due to time zone crossing. See the EJM249 flight status page for this flight to view local times or setup timezone preferences in your user account.

Time Position Orientation Groundspeed Altitude Reporting Facility
EDT Latitude Longitude Course Direction KTS MPH feet Rate Location/Type
Thu 10:16:35 AM 33.6500 -111.9000 334° Northwest 175 201 3,900  Level Phoenix TRACON
Thu 10:17:35 AM 33.6994 -111.9286 334° Northwest 234 269 6,000 2,164 Climbing Albuquerque Center
Thu 10:18:37 AM 33.7753 -111.8989 18° North 295 339 8,300 2,683 Climbing Albuquerque Center
Thu 10:19:38 AM 33.8558 -111.8500 27° Northeast 316 364 11,500 3,073 Climbing Albuquerque Center
Thu 10:20:40 AM 33.9369 -111.8000 27° Northeast 338 389 14,600 3,048 Climbing Albuquerque Center
Thu 10:21:42 AM 34.0361 -111.7389 27° Northeast 356 410 17,800 2,855 Climbing Albuquerque Center
Thu 10:22:44 AM 34.1381 -111.6922 21° North 368 423 20,500 2,537 Climbing Albuquerque Center
Thu 10:23:45 AM 34.2328 -111.6578 17° North 383 441 23,000 2,439 Climbing Albuquerque Center
Thu 10:24:47 AM 34.3386 -111.6161 18° North 393 452 25,500 2,323 Climbing Albuquerque Center
Thu 10:25:49 AM 34.4519 -111.5711 18° North 417 480 27,800 1,694 Climbing Albuquerque Center
Thu 10:26:51 AM 34.5858 -111.4733 31° Northeast 472 543 29,000 585 Climbing Albuquerque Center
Thu 10:27:52 AM 34.6836 -111.3375 49° Northeast 524 603 29,000 732 Level Albuquerque Center
Thu 10:28:54 AM 34.7836 -111.1931 50° Northeast 550 633 30,500 1,645 Climbing Albuquerque Center
Thu 10:29:56 AM 34.8836 -111.0494 50° Northeast 555 639 32,400 1,887 Climbing Albuquerque Center
Thu 10:30:58 AM 34.9828 -110.9075 50° Northeast 551 634 34,400 1,258 Climbing Albuquerque Center
Thu 10:32:00 AM 35.0872 -110.7572 50° Northeast 551 634 35,000 293 Climbing Albuquerque Center
Thu 10:33:01 AM 35.1961 -110.5842 52° Northeast 570 656 35,000 244 Level Albuquerque Center
Thu 10:34:03 AM 35.2917 -110.4400 51° Northeast 570 656 35,500 1,645 Climbing Albuquerque Center
Thu 10:35:05 AM 35.3950 -110.2761 52° Northeast 548 631 38,400 2,081 Climbing Albuquerque Center
Thu 10:36:07 AM 35.4833 -110.1381 52° Northeast 539 620 39,800 1,258 Climbing Albuquerque Center
Thu 10:37:09 AM 35.5869 -109.9753 52° Northeast 540 621 41,000 581 Climbing Albuquerque Center
Thu 10:38:11 AM 35.6778 -109.8331 52° Northeast 548 631 41,000  Level Albuquerque Center
Thu 10:39:13 AM 35.7694 -109.6878 52° Northeast 557 641 41,000  Level Albuquerque Center
Thu 10:40:15 AM 35.8761 -109.5181 52° Northeast 560 644 41,000  Level Albuquerque Center
Thu 10:40:54 AM 35.9375 -109.4214 52° Northeast 562 647 41,000  Level Denver Center
Thu 10:41:56 AM 36.0286 -109.2747 52° Northeast 560 644 41,000  Level Denver Center
Thu 10:42:58 AM 36.1358 -109.1028 52° Northeast 560 644 41,000  Level Denver Center
Thu 10:44:00 AM 36.2297 -108.9528 52° Northeast 563 648 41,000  Level Denver Center
Thu 10:45:02 AM 36.3383 -108.7772 52° Northeast 565 650 41,000  Level Denver Center
Thu 10:46:04 AM 36.4300 -108.6269 53° Northeast 566 651 41,000  Level Denver Center
Thu 10:47:06 AM 36.5208 -108.4769 53° Northeast 566 651 41,000  Level Denver Center
Thu 10:48:08 AM 36.6269 -108.3019 53° Northeast 566 651 41,000  Level Denver Center
Thu 10:49:10 AM 36.7164 -108.1528 53° Northeast 563 648 41,000  Level Denver Center
Thu 10:50:12 AM 36.8308 -107.9889 49° Northeast 561 646 41,000  Level Denver Center
Thu 10:51:14 AM 36.9322 -107.8542 47° Northeast 556 640 41,000  Level Denver Center
Thu 10:52:17 AM 37.0511 -107.6953 47° Northeast 558 642 41,000  Level Denver Center
Thu 10:53:19 AM 37.1531 -107.5578 47° Northeast 562 647 41,000  Level Denver Center
Thu 10:54:21 AM 37.2708 -107.3986 47° Northeast 557 641 41,000  Level Denver Center
Thu 10:55:23 AM 37.3711 -107.2619 47° Northeast 556 640 41,000  Level Denver Center
Thu 10:56:25 AM 37.4881 -107.1031 47° Northeast 555 639 41,000  Level Denver Center
Thu 10:57:27 AM 37.5875 -106.9650 48° Northeast 558 642 41,000  Level Denver Center
Thu 10:58:29 AM 37.7033 -106.8053 47° Northeast 553 636 41,000  Level Denver Center
Thu 10:59:31 AM 37.8033 -106.6661 48° Northeast 557 641 41,000  Level Denver Center
Thu 11:00:33 AM 37.9175 -106.5075 48° Northeast 558 642 41,000  Level Denver Center
Thu 11:01:35 AM 38.0181 -106.3669 48° Northeast 558 642 41,000  Level Denver Center
Thu 11:02:37 AM 38.1158 -106.2308 48° Northeast 556 640 41,000  Level Denver Center
Thu 11:03:39 AM 38.2328 -106.0653 48° Northeast 554 638 41,000  Level Denver Center
Thu 11:04:41 AM 38.3328 -105.9239 48° Northeast 558 642 41,000  Level Denver Center
Thu 11:05:43 AM 38.4478 -105.7603 48° Northeast 556 640 41,000  Level Denver Center
Thu 11:06:45 AM 38.5444 -105.6208 48° Northeast 551 634 41,000  Level Denver Center
Thu 11:07:47 AM 38.6572 -105.4589 48° Northeast 547 629 41,000  Level Denver Center
Thu 11:08:49 AM 38.7553 -105.3172 48° Northeast 551 634 41,000  Level Denver Center
Thu 11:09:51 AM 38.8692 -105.1522 48° Northeast 552 635 41,000  Level Denver Center
Thu 11:10:53 AM 38.9661 -105.0092 49° Northeast 553 636 41,000  Level Denver Center
Thu 11:11:55 AM 39.0792 -104.8433 49° Northeast 553 636 41,000  Level Denver Center
Thu 11:12:57 AM 39.1819 -104.6925 49° Northeast 556 640 41,000  Level Denver Center
Thu 11:13:59 AM 39.2833 -104.5431 49° Northeast 557 641 41,000  Level Denver Center
Thu 11:15:01 AM 39.3906 -104.3822 49° Northeast 553 636 41,000  Level Denver Center
Thu 11:16:03 AM 39.4911 -104.2317 49° Northeast 555 639 41,000  Level Denver Center
Thu 11:17:06 AM 39.5969 -104.0694 50° Northeast 553 636 41,000  Level Denver Center
Thu 11:18:08 AM 39.6975 -103.9178 49° Northeast 557 641 41,000  Level Denver Center
Thu 11:19:10 AM 39.8053 -103.7544 49° Northeast 556 640 41,000  Level Denver Center
Thu 11:20:12 AM 39.8997 -103.6128 49° Northeast 546 628 41,000  Level Denver Center
Thu 11:21:14 AM 40.0061 -103.4494 50° Northeast 557 641 41,000  Level Denver Center
Thu 11:22:16 AM 40.1022 -103.3039 49° Northeast 552 635 41,000  Level Denver Center
Thu 11:23:18 AM 40.2125 -103.1314 50° Northeast 553 636 41,000  Level Denver Center
Thu 11:24:20 AM 40.3069 -102.9839 50° Northeast 551 634 41,000  Level Denver Center
Thu 11:25:22 AM 40.4178 -102.8111 50° Northeast 553 636 41,000  Level Denver Center
Thu 11:26:24 AM 40.5106 -102.6633 50° Northeast 549 632 41,000  Level Denver Center
Thu 11:27:26 AM 40.6208 -102.4900 50° Northeast 552 635 41,000  Level Denver Center
Thu 11:28:28 AM 40.7150 -102.3417 50° Northeast 553 636 41,000  Level Denver Center
Thu 11:29:30 AM 40.8225 -102.1672 51° Northeast 549 632 41,000  Level Denver Center
Thu 11:30:32 AM 40.9158 -102.0192 50° Northeast 547 629 41,000  Level Denver Center
Thu 11:31:34 AM 41.0231 -101.8453 51° Northeast 545 627 41,000  Level Denver Center
Thu 11:32:36 AM 41.1164 -101.6958 50° Northeast 547 629 41,000  Level Denver Center
Thu 11:33:38 AM 41.2233 -101.5214 51° Northeast 544 626 41,000  Level Denver Center
Thu 11:34:40 AM 41.3147 -101.3719 51° Northeast 543 625 41,000  Level Denver Center
Thu 11:35:42 AM 41.4047 -101.2206 52° Northeast 542 624 41,000  Level Denver Center
Thu 11:36:44 AM 41.5111 -101.0458 51° Northeast 541 623 41,000  Level Denver Center
Thu 11:37:46 AM 41.6000 -100.8964 51° Northeast 536 617 41,000  Level Denver Center
Thu 11:38:48 AM 41.7053 -100.7211 51° Northeast 539 620 41,000  Level Denver Center
Thu 11:39:51 AM 41.7939 -100.5714 52° Northeast 537 618 41,000  Level Denver Center
Thu 11:40:53 AM 41.8964 -100.3914 53° Northeast 543 625 41,000  Level Denver Center
Thu 11:41:54 AM 41.9542 -100.2139 66° East 548 631 41,000  Level Minneapolis Center
Thu 11:42:57 AM 42.0214 -100.0061 66° East 541 623 41,000  Level Denver Center
Thu 11:43:59 AM 42.0817 -99.8328 65° Northeast 536 617 41,000  Level Denver Center
Thu 11:45:01 AM 42.1381 -99.6653 66° East 533 613 41,000  Level Denver Center
Thu 11:46:03 AM 42.2122 -99.4436 66° East 536 617 41,000  Level Denver Center
Thu 11:47:05 AM 42.2761 -99.2622 64° Northeast 535 616 41,000  Level Denver Center
Thu 11:48:07 AM 42.3403 -99.0786 65° Northeast 537 618 41,000  Level Denver Center
Thu 11:49:07 AM 42.4100 -98.9008 62° Northeast 534 615 41,000  Level Minneapolis Center
Thu 11:50:08 AM 42.4869 -98.7261 59° Northeast 538 619 41,000  Level Minneapolis Center
Thu 11:51:10 AM 42.5775 -98.5642 53° Northeast 540 621 41,000  Level Minneapolis Center
Thu 11:52:12 AM 42.6783 -98.4144 47° Northeast 538 619 41,000  Level Minneapolis Center
Thu 11:53:14 AM 42.7794 -98.2647 47° Northeast 536 617 41,000  Level Minneapolis Center
Thu 11:54:16 AM 42.8847 -98.1056 48° Northeast 538 619 41,000  Level Minneapolis Center
Thu 11:55:17 AM 42.9856 -97.9547 48° Northeast 539 620 41,000  Level Minneapolis Center
Thu 11:56:19 AM 43.0861 -97.8019 48° Northeast 541 623 41,000  Level Minneapolis Center
Thu 11:57:21 AM 43.2050 -97.6181 48° Northeast 540 621 41,000  Level Minneapolis Center
Thu 11:58:23 AM 43.3056 -97.4667 48° Northeast 539 620 41,000  Level Minneapolis Center
Thu 11:59:28 AM 43.4053 -97.3122 48° Northeast 540 621 41,000  Level Minneapolis Center
Thu 12:00:30 PM 43.5061 -97.1586 48° Northeast 542 624 41,000  Level Minneapolis Center
Thu 12:01:32 PM 43.6256 -96.9722 48° Northeast 542 624 41,000  Level Minneapolis Center
Thu 12:02:34 PM 43.7261 -96.8150 48° Northeast 545 627 41,000 -146 Level Minneapolis Center
Thu 12:03:35 PM 43.8267 -96.6581 48° Northeast 547 629 40,700 -1,268 Descending Minneapolis Center
Thu 12:04:37 PM 43.9242 -96.5019 49° Northeast 542 624 38,400 -2,226 Descending Minneapolis Center
Thu 12:05:39 PM 44.0219 -96.3472 49° Northeast 537 618 36,100 -2,274 Descending Minneapolis Center
Thu 12:06:41 PM 44.1231 -96.1861 49° Northeast 545 627 33,700 -2,419 Descending Minneapolis Center
Thu 12:07:43 PM 44.2358 -96.0083 48° Northeast 549 632 31,100 -2,371 Descending Minneapolis Center
Thu 12:08:45 PM 44.3333 -95.8506 49° Northeast 544 626 28,800 -2,244 Descending Minneapolis Center
Thu 12:09:46 PM 44.4233 -95.6831 53° Northeast 543 625 26,500 -2,244 Descending Minneapolis Center
Thu 12:10:48 PM 44.4897 -95.4950 64° Northeast 540 621 24,200 -2,226 Descending Minneapolis Center
Thu 12:11:50 PM 44.5411 -95.3019 69° East 532 612 21,900 -2,371 Descending Minneapolis Center
Thu 12:12:52 PM 44.6031 -95.0797 69° East 517 595 19,300 -2,323 Descending Minneapolis Center
Thu 12:13:54 PM 44.6525 -94.8997 69° East 502 578 17,100 -2,032 Descending Minneapolis Center
Thu 12:14:56 PM 44.6986 -94.7286 69° East 480 552 15,100 -2,000 Descending Minneapolis Center
Thu 12:15:57 PM 44.7469 -94.5494 69° East 452 520 13,000 -1,854 Descending Minneapolis Center
Thu 12:16:59 PM 44.7864 -94.3994 70° East 402 463 11,300 -1,548 Descending Minneapolis Center
Thu 12:18:01 PM 44.8189 -94.2808 69° East 320 368 9,800 -1,161 Descending Minneapolis Center
Thu 12:19:03 PM 44.8469 -94.1739 70° East 292 336 8,900 -387 Descending Minneapolis Center
Thu 12:20:05 PM 44.8817 -94.0706 65° Northeast 292 336 9,000 -290 Climbing Minneapolis Center
Thu 12:21:07 PM 44.9211 -93.9686 61° Northeast 296 341 8,300 -1,220 Descending Minneapolis Center
Thu 12:22:08 PM 44.9597 -93.8664 62° Northeast 297 342 6,500 -2,488 Descending Minneapolis Center
Thu 12:23:10 PM 45.0058 -93.7467 61° Northeast 289 333 3,200 -1,694 Descending Minneapolis Center
Thu 12:24:12 PM 45.0397 -93.6564 62° Northeast 265 305 3,000 -97 Descending Minneapolis Center
Thu 12:25:14 PM 45.0742 -93.5653 62° Northeast 262 302 3,000  Level Minneapolis Center
Thu 12:26:16 PM 45.1097 -93.4725 61° Northeast 266 306 3,000  Level Minneapolis Center
Thu 12:27:18 PM 45.1364 -93.3781 68° East 263 303 3,000  Level Minneapolis Center
Thu 12:28:20 PM 45.1119 -93.2825 110° East 261 300 3,000  Level Minneapolis Center
Thu 12:29:22 PM 45.0764 -93.1947 120° Southeast 260 299 3,000  Level Minneapolis Center
Thu 12:30:23 PM 45.0278 -93.1503 147° Southeast 209 241 3,000 -585 Level Minneapolis Center
Thu 12:31:25 PM 44.9814 -93.1050 145° Southeast 167 192 1,800 -919 Descending Minneapolis Center
Thu 12:32:27 PM 44.9514 -93.0778 147° Southeast 129 148 1,100 -677 Descending Minneapolis Center
Thu 12:34:00 PM 44.9333 -93.0500 125° Southeast  Level FlightAware Approximate
Thu 12:41:00 PM 44.9346 -93.0603 125° Southeast  Level Estimated

Login

Don't have an account? Register now (free) for customized features, flight alerts, and more!